Time;durP1;ratioP1;P1;durP2;ratioP2;P2;SDS_P1;SDS_P2;PMS_P1;PMS_P2;Temp;Humidity;BMP_temperature;BMP_pressure;BME280_temperature;BME280_humidity;BME280_pressure;Samples;Min_cycle;Max_cycle;Signal;HPM_P1;HPM_P2
2022/10/10 00:02:11;;;;;;;4.10;2.78;;;;;;;12.71;56.90;100264.16;10423655;28;20103;-71
2022/10/10 00:07:13;;;;;;;3.15;2.67;;;;;;;12.65;56.94;100259.38;10419812;28;20059;-71
2022/10/10 00:12:14;;;;;;;2.88;2.67;;;;;;;12.58;56.92;100257.41;10480805;28;20048;-69
2022/10/10 00:17:15;;;;;;;3.75;2.60;;;;;;;12.53;57.42;100245.28;10444787;28;20076;-70
2022/10/10 00:22:16;;;;;;;3.33;2.60;;;;;;;12.53;57.44;100249.78;10432894;28;20071;-69
2022/10/10 00:27:18;;;;;;;2.53;2.17;;;;;;;12.57;57.72;100245.06;10439546;28;20467;-69
2022/10/10 00:32:19;;;;;;;3.05;2.42;;;;;;;12.58;57.97;100247.59;10428024;28;20063;-71
2022/10/10 00:37:20;;;;;;;3.22;2.40;;;;;;;12.68;57.90;100251.09;10448663;28;20487;-70
2022/10/10 00:42:21;;;;;;;2.33;2.08;;;;;;;12.62;57.57;100243.63;10442142;28;20063;-69
2022/10/10 00:47:23;;;;;;;4.47;2.22;;;;;;;12.57;58.05;100240.53;10435590;28;20060;-69
2022/10/10 00:52:24;;;;;;;3.00;2.30;;;;;;;12.47;58.21;100235.16;10432609;28;20055;-74
2022/10/10 00:57:25;;;;;;;2.40;2.20;;;;;;;12.54;58.65;100238.97;10411035;28;20044;-70
2022/10/10 01:02:27;;;;;;;4.00;2.35;;;;;;;12.40;58.46;100231.38;10421434;28;20068;-71
2022/10/10 01:07:30;;;;;;;3.10;2.80;;;;;;;12.33;59.27;100233.72;10432418;28;20052;-68
2022/10/10 01:13:10;;;;;;;3.53;2.65;;;;;;;12.27;59.43;100234.25;10435381;28;20061;-67
2022/10/10 01:18:23;;;;;;;4.20;2.58;;;;;;;12.31;59.30;100230.34;10411280;28;20045;-70
2022/10/10 01:23:52;;;;;;;4.15;2.72;;;;;;;12.27;59.43;100226.25;10431626;28;20053;-70
2022/10/10 01:29:06;;;;;;;3.08;2.38;;;;;;;12.15;59.88;100222.00;10418806;28;20176;-70
2022/10/10 01:34:21;;;;;;;5.00;2.85;;;;;;;12.32;59.75;100215.19;10370853;28;20190;-69
2022/10/10 01:39:39;;;;;;;4.75;2.67;;;;;;;12.12;60.03;100215.09;10413923;28;20045;-72
2022/10/10 01:44:45;;;;;;;4.68;2.63;;;;;;;12.09;60.34;100209.22;10416529;28;20056;-70
2022/10/10 01:49:50;;;;;;;3.58;2.72;;;;;;;11.99;60.46;100219.81;10443270;28;20060;-70
2022/10/10 01:55:22;;;;;;;2.78;2.50;;;;;;;11.86;60.91;100214.69;10438463;28;20048;-70
2022/10/10 02:00:24;;;;;;;3.67;2.78;;;;;;;11.87;61.24;100207.53;10417450;28;20052;-69
2022/10/10 02:05:44;;;;;;;5.28;2.45;;;;;;;11.79;61.45;100200.19;10433128;28;20048;-69
2022/10/10 02:10:51;;;;;;;4.95;3.13;;;;;;;11.90;61.51;100202.75;10432816;28;20052;-72
2022/10/10 02:15:56;;;;;;;3.40;2.70;;;;;;;11.78;61.90;100204.66;10414958;28;20407;-70
2022/10/10 02:21:00;;;;;;;4.35;2.88;;;;;;;11.73;61.77;100192.72;10413015;28;20056;-70
2022/10/10 02:26:02;;;;;;;3.72;2.92;;;;;;;11.63;62.51;100187.31;10428427;28;20049;-70
2022/10/10 02:31:10;;;;;;;3.05;2.58;;;;;;;11.52;62.69;100185.59;10411970;28;20562;-70
2022/10/10 02:36:14;;;;;;;5.93;3.00;;;;;;;11.54;62.69;100183.63;10445698;28;20575;-73
2022/10/10 02:41:19;;;;;;;3.90;2.70;;;;;;;11.48;63.13;100184.16;10470072;28;20040;-72
2022/10/10 02:46:21;;;;;;;4.60;2.85;;;;;;;11.48;63.30;100184.16;10435938;28;20685;-71
2022/10/10 02:51:23;;;;;;;3.15;2.80;;;;;;;11.41;63.46;100182.97;10412767;28;20681;-71
2022/10/10 02:56:30;;;;;;;4.03;3.53;;;;;;;11.39;63.79;100169.78;10432437;28;20049;-71
2022/10/10 03:01:31;;;;;;;3.38;3.05;;;;;;;11.45;63.55;100173.75;10462727;28;20041;-71
2022/10/10 03:06:33;;;;;;;3.42;2.80;;;;;;;11.44;63.62;100178.25;10463779;28;20052;-69
2022/10/10 03:11:34;;;;;;;4.80;3.80;;;;;;;11.52;63.85;100174.94;10433599;28;20056;-69
2022/10/10 03:16:35;;;;;;;4.53;3.70;;;;;;;11.57;63.89;100177.19;10448680;28;20049;-71
2022/10/10 03:21:37;;;;;;;5.05;3.53;;;;;;;11.56;63.45;100180.81;10468135;28;20041;-70
2022/10/10 03:26:38;;;;;;;6.35;4.05;;;;;;;11.50;63.45;100171.56;10413409;28;20082;-70
2022/10/10 03:31:39;;;;;;;5.55;3.33;;;;;;;11.36;63.95;100185.19;10430203;28;20048;-69
2022/10/10 03:36:41;;;;;;;4.53;3.20;;;;;;;11.31;64.38;100183.78;10439402;28;20060;-72
2022/10/10 03:41:42;;;;;;;3.75;3.03;;;;;;;11.33;64.45;100186.31;10437654;28;20045;-68
2022/10/10 03:46:43;;;;;;;5.18;3.58;;;;;;;11.23;64.63;100180.91;10444174;28;20060;-70
2022/10/10 03:51:44;;;;;;;3.50;3.20;;;;;;;11.29;65.03;100180.41;10445311;28;20045;-71
2022/10/10 03:56:46;;;;;;;5.28;3.45;;;;;;;11.55;64.47;100174.66;10431722;28;20574;-71
2022/10/10 04:01:47;;;;;;;7.22;3.78;;;;;;;11.58;64.20;100170.91;10444508;28;20044;-69
2022/10/10 04:06:48;;;;;;;3.28;2.97;;;;;;;11.35;64.94;100173.72;10434803;28;20454;-70
2022/10/10 04:11:50;;;;;;;3.72;3.35;;;;;;;11.27;64.90;100177.03;10430086;28;20469;-72
2022/10/10 04:16:51;;;;;;;4.88;3.38;;;;;;;11.23;64.85;100172.94;10447154;28;24918;-73
2022/10/10 04:21:52;;;;;;;3.20;2.90;;;;;;;11.26;65.05;100163.81;10428333;28;20496;-71
2022/10/10 04:26:54;;;;;;;5.05;3.38;;;;;;;11.28;66.53;100168.03;10412297;28;20431;-69
2022/10/10 04:31:55;;;;;;;5.15;2.92;;;;;;;11.46;65.75;100159.47;10426630;28;20056;-71
2022/10/10 04:36:57;;;;;;;6.03;3.70;;;;;;;11.38;64.24;100173.44;10416672;28;20056;-71
2022/10/10 04:41:58;;;;;;;3.42;3.10;;;;;;;11.40;66.14;100171.47;10424274;28;20087;-69
2022/10/10 04:46:59;;;;;;;4.95;3.47;;;;;;;11.54;65.24;100177.47;10435292;28;20053;-69
2022/10/10 04:52:00;;;;;;;6.00;3.33;;;;;;;11.53;64.59;100181.97;10437114;28;20063;-68
2022/10/10 04:57:02;;;;;;;5.13;3.45;;;;;;;11.63;64.25;100176.66;10434316;28;20056;-68
2022/10/10 05:02:04;;;;;;;6.60;3.65;;;;;;;11.49;64.43;100191.19;10397611;28;20044;-70
2022/10/10 05:07:05;;;;;;;4.30;3.22;;;;;;;11.46;64.81;100194.13;10417600;28;20414;-69
2022/10/10 05:12:06;;;;;;;6.35;3.47;;;;;;;11.41;65.04;100196.31;10407385;28;20060;-70
2022/10/10 05:17:08;;;;;;;3.75;3.38;;;;;;;11.35;66.12;100188.84;10400411;28;20053;-68
2022/10/10 05:22:09;;;;;;;5.22;3.75;;;;;;;11.48;65.16;100185.03;10399892;28;20582;-70
2022/10/10 05:27:10;;;;;;;6.25;3.95;;;;;;;11.33;65.39;100175.63;10420717;28;20482;-71
2022/10/10 05:32:12;;;;;;;5.43;4.20;;;;;;;11.20;66.58;100175.84;10423975;28;20052;-70
2022/10/10 05:37:13;;;;;;;5.40;4.18;;;;;;;11.14;65.92;100179.88;10447550;28;20139;-71
2022/10/10 05:42:15;;;;;;;8.77;4.95;;;;;;;10.92;66.49;100195.97;10461849;28;20055;-73
2022/10/10 05:47:16;;;;;;;5.30;4.15;;;;;;;11.01;67.30;100178.38;10432880;28;20053;-68
2022/10/10 05:52:17;;;;;;;8.23;4.97;;;;;;;11.00;66.84;100179.34;10420478;28;20099;-71
2022/10/10 05:57:18;;;;;;;6.72;5.00;;;;;;;10.99;67.25;100193.63;10405824;28;20686;-72
2022/10/10 06:02:20;;;;;;;6.40;4.40;;;;;;;11.11;67.55;100185.47;10407912;28;21455;-71
2022/10/10 06:07:21;;;;;;;7.20;4.60;;;;;;;11.19;66.33;100190.13;10421048;28;20045;-70
2022/10/10 06:12:22;;;;;;;5.07;3.90;;;;;;;10.91;67.04;100202.25;10409654;28;20048;-68
2022/10/10 06:17:24;;;;;;;5.40;3.67;;;;;;;10.99;68.02;100201.59;10450508;28;20053;-70
2022/10/10 06:22:26;;;;;;;6.35;3.67;;;;;;;11.19;68.00;100197.31;10451315;28;20402;-72
2022/10/10 06:27:27;;;;;;;5.45;3.97;;;;;;;11.22;66.26;100205.88;10417343;28;21695;-69
2022/10/10 06:32:28;;;;;;;6.10;4.10;;;;;;;11.32;66.24;100212.13;10452876;28;20049;-69
2022/10/10 06:37:30;;;;;;;8.45;5.38;;;;;;;11.28;65.84;100204.50;10418684;28;20060;-69
2022/10/10 06:42:32;;;;;;;13.25;6.60;;;;;;;11.41;65.80;100209.63;10399495;28;20135;-69
2022/10/10 06:47:33;;;;;;;7.60;5.28;;;;;;;11.62;65.03;100222.94;10418902;28;20053;-71
2022/10/10 06:52:35;;;;;;;8.98;5.35;;;;;;;11.55;64.85;100225.31;10441029;28;20873;-70
2022/10/10 06:57:37;;;;;;;8.00;4.53;;;;;;;11.62;64.80;100234.47;10420259;28;20059;-69
2022/10/10 07:02:39;;;;;;;9.57;5.28;;;;;;;11.78;64.72;100234.00;10421160;28;20434;-70
2022/10/10 07:07:42;;;;;;;8.38;5.30;;;;;;;12.01;64.26;100242.72;10420149;28;20056;-71
2022/10/10 07:12:43;;;;;;;8.43;5.05;;;;;;;12.17;63.64;100241.38;10411443;28;20055;-72
2022/10/10 07:17:45;;;;;;;10.30;5.32;;;;;;;11.98;64.33;100234.13;10388433;28;20126;-71
2022/10/10 07:22:53;;;;;;;9.88;6.28;;;;;;;12.06;64.39;100252.16;10417001;28;20136;-68
2022/10/10 07:27:55;;;;;;;10.00;5.65;;;;;;;12.13;64.32;100256.84;10417084;28;20102;-69
2022/10/10 07:32:57;;;;;;;10.35;6.15;;;;;;;12.28;63.67;100261.78;10419180;28;20051;-70
2022/10/10 07:37:58;;;;;;;7.10;5.65;;;;;;;12.50;62.99;100260.75;10427090;28;20060;-69
2022/10/10 07:43:00;;;;;;;8.30;6.55;;;;;;;12.48;63.08;100262.72;10407751;28;20067;-71
2022/10/10 07:48:02;;;;;;;8.43;5.70;;;;;;;12.54;63.14;100262.19;10413935;28;20047;-69
2022/10/10 07:53:05;;;;;;;10.27;6.70;;;;;;;12.70;62.43;100257.16;10431340;28;20049;-69
2022/10/10 07:58:08;;;;;;;10.57;7.10;;;;;;;13.12;61.57;100282.81;10446198;28;20067;-70
2022/10/10 08:03:10;;;;;;;11.25;6.82;;;;;;;13.27;60.79;100283.25;10428661;28;20048;-69
2022/10/10 08:08:12;;;;;;;9.18;6.78;;;;;;;13.19;61.33;100272.41;10406274;28;20817;-68
2022/10/10 08:13:14;;;;;;;14.05;6.68;;;;;;;13.44;60.94;100266.53;10408738;28;20469;-69
2022/10/10 08:18:15;;;;;;;14.88;6.68;;;;;;;13.77;60.17;100259.00;10423403;28;20048;-69
2022/10/10 08:23:16;;;;;;;15.60;7.00;;;;;;;14.04;59.75;100260.06;10400202;28;20071;-71
2022/10/10 08:28:23;;;;;;;11.82;6.18;;;;;;;14.43;58.40;100261.75;10424363;28;20052;-71
2022/10/10 08:33:26;;;;;;;10.60;6.18;;;;;;;14.69;57.76;100264.59;10404809;28;20057;-70
2022/10/10 08:38:27;;;;;;;14.02;6.22;;;;;;;14.98;57.02;100255.53;10419221;28;20049;-71
2022/10/10 08:43:36;;;;;;;12.60;7.60;;;;;;;15.28;56.56;100262.38;10413007;28;20138;-69
2022/10/10 08:48:39;;;;;;;16.77;6.22;;;;;;;15.71;56.31;100254.47;10417059;28;20041;-68
2022/10/10 08:53:46;;;;;;;10.65;6.10;;;;;;;16.23;54.18;100257.19;10414521;28;20392;-70
2022/10/10 08:58:54;;;;;;;10.55;5.60;;;;;;;16.70;53.67;100260.38;10426738;28;20128;-71
2022/10/10 09:04:01;;;;;;;8.63;6.00;;;;;;;16.99;52.55;100256.44;10412167;28;20059;-71
2022/10/10 09:09:33;;;;;;;8.38;6.20;;;;;;;17.29;52.46;100236.13;10419381;28;20059;-71
2022/10/10 09:14:45;;;;;;;7.30;6.03;;;;;;;17.55;52.28;100245.88;10416213;28;20048;-69
2022/10/10 09:20:17;;;;;;;6.60;5.28;;;;;;;18.17;50.89;100240.75;10415789;28;20052;-69
2022/10/10 09:25:25;;;;;;;7.60;6.15;;;;;;;17.81;51.69;100234.94;10414927;28;20036;-70
2022/10/10 09:30:30;;;;;;;5.85;4.90;;;;;;;18.05;51.70;100241.31;10415337;28;20840;-71
2022/10/10 09:35:36;;;;;;;5.72;5.10;;;;;;;18.12;51.78;100237.75;10411026;28;20037;-70
2022/10/10 09:40:44;;;;;;;7.90;5.05;;;;;;;18.43;51.01;100234.25;10397649;28;20590;-70
2022/10/10 09:45:52;;;;;;;6.32;4.90;;;;;;;19.28;49.52;100232.59;10414846;28;20045;-69
2022/10/10 09:50:54;;;;;;;6.47;4.50;;;;;;;21.82;44.53;100241.16;10397038;28;20785;-69
2022/10/10 09:55:57;;;;;;;6.22;5.18;;;;;;;23.74;38.45;100237.63;10415007;28;20141;-70
2022/10/10 10:01:18;;;;;;;;;;;;;;;24.48;37.01;100235.59;10401494;28;20561;-71
2022/10/10 10:06:20;;;;;;;7.10;4.40;;;;;;;23.82;38.01;100240.13;10385228;28;19924;-70
2022/10/10 10:11:29;;;;;;;4.43;4.03;;;;;;;21.96;42.17;100235.84;10391388;28;20049;-71
2022/10/10 10:16:37;;;;;;;5.10;4.60;;;;;;;20.60;44.85;100239.34;10377191;28;20544;-70
2022/10/10 10:21:50;;;;;;;4.75;4.18;;;;;;;19.89;47.37;100239.81;10378735;28;20049;-70
2022/10/10 10:26:51;;;;;;;4.97;4.43;;;;;;;22.49;42.71;100246.16;10381551;28;20049;-69
2022/10/10 10:32:24;;;;;;;5.90;3.60;;;;;;;27.50;33.04;100243.31;10378741;28;20101;-71
2022/10/10 10:37:56;;;;;;;4.50;3.70;;;;;;;25.40;35.42;100252.50;10377166;28;20839;-70
2022/10/10 10:43:31;;;;;;;5.33;3.87;;;;;;;26.23;34.52;100244.19;10375312;28;20643;-72
2022/10/10 10:48:57;;;;;;;5.03;3.83;;;;;;;28.02;32.38;100230.88;10377719;28;20060;-71
2022/10/10 10:54:13;;;;;;;4.43;3.50;;;;;;;27.68;32.36;100230.59;10415905;28;20052;-72
2022/10/10 10:59:17;;;;;;;7.80;3.92;;;;;;;27.87;32.48;100228.59;10382608;28;20054;-71
2022/10/10 11:04:42;;;;;;;4.82;4.28;;;;;;;27.33;33.26;100228.69;10422624;28;20113;-72
2022/10/10 11:10:19;;;;;;;5.90;3.72;;;;;;;31.38;28.63;100228.38;10381596;28;20486;-72
2022/10/10 11:15:40;;;;;;;5.60;4.03;;;;;;;33.85;24.47;100220.09;10372202;28;20033;-71
2022/10/10 11:21:08;;;;;;;6.60;3.83;;;;;;;34.51;24.04;100210.75;10412032;28;20759;-70
2022/10/10 11:26:16;;;;;;;4.90;4.50;;;;;;;35.84;22.91;100218.34;10412659;28;20049;-70
2022/10/10 11:31:42;;;;;;;6.88;3.78;;;;;;;36.69;21.92;100196.50;10393292;28;20063;-72
2022/10/10 11:36:45;;;;;;;8.75;4.00;;;;;;;38.45;19.70;100184.72;10411782;28;20056;-75
2022/10/10 11:41:55;;;;;;;5.65;3.10;;;;;;;38.84;18.96;100193.56;10420693;28;20045;-71
2022/10/10 11:47:13;;;;;;;4.85;3.72;;;;;;;40.04;18.31;100193.81;10406434;28;20048;-72
2022/10/10 11:52:33;;;;;;;5.05;3.03;;;;;;;39.98;17.54;100200.63;10424437;28;20711;-71
2022/10/10 11:57:42;;;;;;;6.40;4.25;;;;;;;39.11;18.46;100205.72;10382903;28;20053;-74
2022/10/10 12:02:45;;;;;;;4.65;3.30;;;;;;;38.64;19.48;100194.84;10386539;28;20135;-71
2022/10/10 12:07:52;;;;;;;4.55;3.83;;;;;;;37.86;19.25;100195.66;10381106;28;20057;-73
2022/10/10 12:13:00;;;;;;;6.95;3.58;;;;;;;37.90;20.43;100202.25;10382625;28;20132;-71
2022/10/10 12:18:01;;;;;;;5.85;3.45;;;;;;;37.19;20.64;100199.59;10383803;28;20069;-73
2022/10/10 12:23:28;;;;;;;5.45;3.30;;;;;;;38.28;19.53;100195.66;10379129;28;20060;-70
2022/10/10 12:28:57;;;;;;;3.78;3.15;;;;;;;40.89;17.13;100189.00;10380385;28;20056;-71
2022/10/10 12:34:05;;;;;;;4.20;3.10;;;;;;;40.69;17.22;100173.69;10384138;28;20051;-72
2022/10/10 12:39:09;;;;;;;3.93;2.87;;;;;;;40.81;16.86;100177.47;10381806;28;20049;-73
2022/10/10 12:44:14;;;;;;;4.47;2.78;;;;;;;41.76;16.29;100177.63;10381185;28;20064;-72
2022/10/10 12:49:23;;;;;;;4.72;3.00;;;;;;;41.10;15.98;100164.00;10382647;28;21403;-72
2022/10/10 12:54:30;;;;;;;6.60;2.38;;;;;;;41.87;16.03;100166.88;10377892;28;20138;-73
2022/10/10 12:59:34;;;;;;;6.70;3.17;;;;;;;42.09;15.50;100168.56;10376978;28;20059;-71
2022/10/10 13:04:41;;;;;;;5.28;2.47;;;;;;;41.51;16.07;100168.16;10368282;28;20053;-72
2022/10/10 13:09:45;;;;;;;6.40;2.58;;;;;;;41.89;15.68;100166.53;10369193;28;20060;-73
2022/10/10 13:14:47;;;;;;;5.28;2.30;;;;;;;38.28;18.45;100168.66;10371903;28;20048;-72
2022/10/10 13:19:49;;;;;;;6.55;2.70;;;;;;;38.19;18.34;100159.44;10373270;28;20059;-73
2022/10/10 13:24:51;;;;;;;4.45;2.10;;;;;;;37.93;18.94;100159.97;10376890;28;20048;-72
2022/10/10 13:29:54;;;;;;;6.55;2.63;;;;;;;39.29;18.02;100162.97;10370962;28;20523;-72
2022/10/10 13:35:03;;;;;;;6.55;2.03;;;;;;;40.42;17.16;100170.09;10388569;28;20055;-71
2022/10/10 13:40:05;;;;;;;5.73;2.43;;;;;;;34.58;22.73;100168.19;10391058;28;20137;-71
2022/10/10 13:45:21;;;;;;;4.38;2.20;;;;;;;33.93;24.04;100163.47;10383087;28;20064;-70
2022/10/10 13:50:55;;;;;;;5.97;2.72;;;;;;;34.53;22.94;100161.56;10404312;28;20055;-71
2022/10/10 13:55:58;;;;;;;5.80;2.53;;;;;;;34.09;24.16;100155.97;10362836;28;20853;-71
2022/10/10 14:01:02;;;;;;;4.57;2.15;;;;;;;37.15;20.31;100166.09;10366808;28;20060;-71
2022/10/10 14:06:06;;;;;;;5.65;2.20;;;;;;;38.61;18.89;100157.34;10371967;28;20053;-70
2022/10/10 14:11:16;;;;;;;6.65;2.03;;;;;;;39.33;18.01;100157.56;10370269;28;20061;-70
2022/10/10 14:16:17;;;;;;;7.35;2.72;;;;;;;37.26;20.03;100155.69;10373265;28;20051;-71
2022/10/10 14:21:19;;;;;;;7.47;2.45;;;;;;;31.72;26.28;100156.56;10368893;28;20053;-70
2022/10/10 14:26:20;;;;;;;9.07;2.95;;;;;;;30.72;27.99;100159.88;10359719;28;20053;-71
2022/10/10 14:31:22;;;;;;;7.18;2.55;;;;;;;29.08;30.12;100158.47;10364686;28;20090;-72
2022/10/10 14:36:24;;;;;;;7.47;2.78;;;;;;;27.21;33.83;100149.38;10373162;28;20045;-70
2022/10/10 14:41:25;;;;;;;5.38;3.00;;;;;;;25.67;37.13;100153.31;10371853;28;20045;-71
2022/10/10 14:46:26;;;;;;;4.72;2.78;;;;;;;24.91;39.08;100164.22;10372150;28;20319;-70
2022/10/10 14:51:28;;;;;;;6.25;3.08;;;;;;;24.57;39.92;100160.81;10367665;28;20091;-73
2022/10/10 14:56:35;;;;;;;6.43;2.90;;;;;;;24.23;40.86;100157.44;10389526;28;20065;-70
2022/10/10 15:01:56;;;;;;;10.60;3.90;;;;;;;23.74;42.24;100156.94;10369928;28;20053;-72
2022/10/10 15:06:58;;;;;;;6.32;3.92;;;;;;;23.02;43.53;100147.78;10374716;28;20075;-70
2022/10/10 15:12:14;;;;;;;7.80;3.47;;;;;;;22.64;45.09;100161.91;10368922;28;20046;-70
2022/10/10 15:17:15;;;;;;;7.53;4.45;;;;;;;22.40;45.86;100162.28;10370888;28;20975;-69
2022/10/10 15:22:16;;;;;;;6.50;3.63;;;;;;;22.14;47.05;100162.94;10374984;28;20056;-70
2022/10/10 15:27:18;;;;;;;9.18;4.50;;;;;;;21.98;47.35;100163.28;10378790;28;20049;-69
2022/10/10 15:32:22;;;;;;;4.95;3.53;;;;;;;21.86;48.21;100160.34;10372072;28;20053;-70
2022/10/10 15:37:25;;;;;;;6.07;4.10;;;;;;;21.61;49.62;100157.25;10376391;28;20523;-69
2022/10/10 15:42:27;;;;;;;;;;;;;;;21.59;49.97;100165.59;10366106;28;20091;-69
2022/10/10 15:47:28;;;;;;;7.82;4.63;;;;;;;21.50;49.92;100158.66;10364794;28;19932;-70
2022/10/10 15:52:29;;;;;;;7.03;3.50;;;;;;;21.36;51.44;100160.38;10371856;28;20645;-70
2022/10/10 15:57:31;;;;;;;6.53;3.25;;;;;;;21.28;52.23;100169.47;10371389;28;20053;-69
2022/10/10 16:02:32;;;;;;;3.95;3.38;;;;;;;21.16;52.41;100166.47;10375631;28;20049;-71
2022/10/10 16:07:34;;;;;;;4.88;3.30;;;;;;;21.01;53.48;100179.25;10369823;28;20776;-70
2022/10/10 16:12:44;;;;;;;6.45;4.22;;;;;;;20.86;54.03;100190.13;10372044;28;20049;-70
2022/10/10 16:17:45;;;;;;;6.43;3.75;;;;;;;20.63;55.01;100185.69;10374463;28;20053;-69
2022/10/10 16:22:47;;;;;;;7.32;3.80;;;;;;;20.43;55.72;100185.47;10373561;28;20397;-69
2022/10/10 16:27:48;;;;;;;9.35;4.68;;;;;;;20.27;56.51;100194.63;10377992;28;20610;-70
2022/10/10 16:32:49;;;;;;;9.23;5.70;;;;;;;20.12;57.36;100205.44;10378348;28;20091;-69
2022/10/10 16:37:51;;;;;;;12.32;5.05;;;;;;;19.92;58.51;100209.72;10377864;28;20139;-72
2022/10/10 16:42:52;;;;;;;8.30;4.45;;;;;;;19.81;58.98;100211.03;10392320;28;20052;-70
2022/10/10 16:47:53;;;;;;;5.97;5.22;;;;;;;19.62;59.82;100223.16;10374013;28;20431;-71
2022/10/10 16:52:55;;;;;;;10.00;7.00;;;;;;;19.55;60.82;100216.84;10378103;28;20324;-71
2022/10/10 16:57:58;;;;;;;10.30;6.25;;;;;;;19.47;60.73;100220.47;10376266;28;20049;-70
2022/10/10 17:02:59;;;;;;;7.23;6.30;;;;;;;19.38;61.87;100216.13;10377384;28;20059;-70
2022/10/10 17:08:01;;;;;;;8.50;6.80;;;;;;;19.32;61.87;100223.13;10386198;28;20057;-71
2022/10/10 17:13:02;;;;;;;11.43;6.22;;;;;;;19.26;62.16;100215.75;10399026;28;20054;-70
2022/10/10 17:18:04;;;;;;;10.18;6.28;;;;;;;19.24;62.36;100231.25;10388519;28;20040;-71
2022/10/10 17:23:11;;;;;;;11.93;6.60;;;;;;;19.18;62.51;100229.28;10419219;28;20052;-73
2022/10/10 17:28:13;;;;;;;8.88;7.65;;;;;;;19.22;62.43;100233.31;10416650;28;20049;-73
2022/10/10 17:33:17;;;;;;;10.27;6.95;;;;;;;19.17;62.68;100251.88;10416702;28;20604;-71
2022/10/10 17:38:18;;;;;;;9.70;7.00;;;;;;;19.19;62.94;100260.66;10417298;28;20059;-71
2022/10/10 17:43:39;;;;;;;10.77;7.07;;;;;;;19.11;63.52;100258.84;10383871;28;20098;-70
2022/10/10 17:48:41;;;;;;;8.10;6.43;;;;;;;19.16;62.63;100296.91;10392556;28;21384;-71
2022/10/10 17:53:43;;;;;;;12.98;7.75;;;;;;;18.97;65.19;100321.66;10445357;28;20649;-70
2022/10/10 17:58:46;;;;;;;9.82;6.50;;;;;;;18.92;67.45;100324.88;10428331;28;20533;-72
2022/10/10 18:03:47;;;;;;;11.25;6.80;;;;;;;18.72;72.09;100329.84;10422904;28;20083;-71
2022/10/10 18:08:50;;;;;;;13.43;7.00;;;;;;;18.53;74.01;100339.16;10418223;28;20071;-72
2022/10/10 18:13:52;;;;;;;12.83;6.97;;;;;;;18.41;77.15;100333.31;10417137;28;20056;-72
2022/10/10 18:18:54;;;;;;;7.28;6.50;;;;;;;18.34;78.91;100329.63;10396318;28;20053;-73
2022/10/10 18:23:55;;;;;;;12.07;7.20;;;;;;;18.28;79.70;100341.09;10416868;28;20057;-71
2022/10/10 18:28:57;;;;;;;9.25;6.43;;;;;;;18.33;76.66;100331.47;10418599;28;20067;-72
2022/10/10 18:34:00;;;;;;;11.05;6.55;;;;;;;18.36;75.94;100341.91;10417875;28;20052;-70
2022/10/10 18:39:05;;;;;;;7.43;6.17;;;;;;;17.97;77.77;100366.03;10399542;28;20495;-71
2022/10/10 18:44:10;;;;;;;8.52;5.95;;;;;;;17.89;79.59;100372.25;10395832;28;20052;-71
2022/10/10 18:49:13;;;;;;;10.73;6.70;;;;;;;17.96;80.06;100367.88;10419286;28;20044;-72
2022/10/10 18:54:17;;;;;;;10.57;6.07;;;;;;;18.01;79.28;100370.06;10411183;28;20049;-71
2022/10/10 18:59:22;;;;;;;9.35;6.97;;;;;;;18.05;79.94;100374.13;10412219;28;20048;-72
2022/10/10 19:04:23;;;;;;;9.73;6.60;;;;;;;17.99;81.47;100367.53;10320290;28;20059;-71
2022/10/10 19:09:28;;;;;;;11.68;6.32;;;;;;;17.93;80.47;100368.22;10363293;28;20408;-72
2022/10/10 19:14:39;;;;;;;11.73;7.10;;;;;;;17.96;80.87;100378.66;10385421;28;20057;-74
2022/10/10 19:19:55;;;;;;;8.68;6.15;;;;;;;17.83;82.93;100380.97;10319375;28;20048;-72
2022/10/10 19:24:57;;;;;;;9.25;6.85;;;;;;;17.79;82.99;100385.88;10370531;28;20056;-72
2022/10/10 19:30:05;;;;;;;11.20;6.05;;;;;;;17.77;82.67;100395.94;10354704;28;20060;-74
2022/10/10 19:35:08;;;;;;;11.18;6.22;;;;;;;17.69;81.80;100398.66;10395945;28;21436;-72
2022/10/10 19:40:12;;;;;;;10.88;6.97;;;;;;;17.60;83.23;100399.66;10366921;28;20044;-73
2022/10/10 19:45:13;;;;;;;9.75;6.28;;;;;;;17.66;83.46;100415.13;10370398;28;20044;-71
2022/10/10 19:50:15;;;;;;;9.85;6.00;;;;;;;17.69;82.09;100422.03;10363313;28;20425;-73
2022/10/10 19:55:18;;;;;;;9.48;5.65;;;;;;;17.69;80.46;100419.34;10405495;28;20053;-71
2022/10/10 20:00:20;;;;;;;11.55;6.50;;;;;;;17.61;83.68;100429.09;10398141;28;20513;-71
2022/10/10 20:05:38;;;;;;;25.77;15.88;;;;;;;17.55;84.07;100431.59;10384610;28;20060;-72
2022/10/10 20:10:50;;;;;;;20.00;12.68;;;;;;;17.47;83.47;100437.78;10354219;28;20044;-72
2022/10/10 20:15:51;;;;;;;8.32;5.38;;;;;;;17.45;82.85;100445.19;10400899;28;20056;-72
2022/10/10 20:20:53;;;;;;;10.65;4.45;;;;;;;17.45;82.16;100455.97;10402962;28;20052;-71
2022/10/10 20:25:55;;;;;;;7.32;4.15;;;;;;;17.42;80.05;100467.88;10387375;28;20049;-72
2022/10/10 20:30:57;;;;;;;12.13;4.65;;;;;;;17.47;80.27;100470.09;10384085;28;20149;-70
2022/10/10 20:36:01;;;;;;;12.05;5.13;;;;;;;17.46;80.30;100481.88;10392127;28;20053;-71
2022/10/10 20:41:05;;;;;;;9.43;4.25;;;;;;;17.33;79.51;100478.78;10396477;28;20503;-70
2022/10/10 20:46:09;;;;;;;9.93;3.97;;;;;;;17.25;79.85;100493.88;10394442;28;20048;-70
2022/10/10 20:51:11;;;;;;;;;;;;;;;17.21;79.08;100497.91;10402444;28;20056;-71
2022/10/10 20:56:12;;;;;;;9.88;4.57;;;;;;;17.16;79.83;100497.53;10396640;28;20380;-70
2022/10/10 21:01:16;;;;;;;10.13;4.82;;;;;;;17.13;79.45;100505.94;10399920;28;20049;-71
2022/10/10 21:06:31;;;;;;;9.52;3.65;;;;;;;17.09;79.99;100509.94;10405481;28;20059;-71
2022/10/10 21:11:33;;;;;;;9.68;3.53;;;;;;;17.14;76.54;100510.28;10399382;28;20041;-71
2022/10/10 21:16:38;;;;;;;7.18;3.95;;;;;;;17.03;78.97;100518.66;10398935;28;20048;-71
2022/10/10 21:21:39;;;;;;;9.25;4.03;;;;;;;17.05;78.79;100525.53;10404065;28;20049;-71
2022/10/10 21:26:41;;;;;;;10.63;4.18;;;;;;;17.01;77.85;100523.31;10401900;28;20052;-71
2022/10/10 21:31:42;;;;;;;8.23;3.63;;;;;;;17.01;78.84;100537.63;10399179;28;20044;-72
2022/10/10 21:36:45;;;;;;;9.45;3.53;;;;;;;16.99;77.53;100546.84;10393589;28;20151;-72
2022/10/10 21:41:46;;;;;;;10.70;3.92;;;;;;;17.04;78.40;100553.44;10394809;28;20049;-73
2022/10/10 21:46:48;;;;;;;5.93;3.63;;;;;;;17.06;77.87;100550.59;10395954;28;20522;-71
2022/10/10 21:51:51;;;;;;;12.63;4.65;;;;;;;16.99;77.19;100555.75;10400554;28;20053;-72
2022/10/10 21:56:52;;;;;;;11.48;4.35;;;;;;;16.98;77.56;100545.16;10397127;28;20049;-70
2022/10/10 22:01:53;;;;;;;8.20;3.63;;;;;;;16.90;78.47;100560.25;10397376;28;20095;-71
2022/10/10 22:06:55;;;;;;;7.50;4.00;;;;;;;16.91;77.82;100564.63;10396708;28;20128;-70
2022/10/10 22:11:56;;;;;;;8.85;3.92;;;;;;;16.89;77.85;100588.13;10396176;28;20045;-72
2022/10/10 22:16:57;;;;;;;12.43;4.45;;;;;;;16.88;77.75;100583.75;10396774;28;20075;-71
2022/10/10 22:21:59;;;;;;;8.50;4.22;;;;;;;16.75;78.48;100591.34;10394060;28;20049;-70
2022/10/10 22:27:00;;;;;;;9.43;4.15;;;;;;;16.79;78.86;100603.47;10396067;28;20280;-70
2022/10/10 22:32:01;;;;;;;8.65;4.07;;;;;;;16.81;78.63;100614.91;10395692;28;20041;-70
2022/10/10 22:37:03;;;;;;;12.55;4.25;;;;;;;16.77;78.59;100619.75;10395594;28;20049;-70
2022/10/10 22:42:04;;;;;;;7.65;4.05;;;;;;;16.74;79.42;100621.94;10397945;28;20056;-71
2022/10/10 22:47:06;;;;;;;9.32;4.32;;;;;;;16.70;79.58;100623.22;10389371;28;20056;-70
2022/10/10 22:52:08;;;;;;;10.73;4.57;;;;;;;16.70;78.75;100633.97;10393555;28;20059;-71
2022/10/10 22:57:09;;;;;;;10.05;4.97;;;;;;;16.57;76.53;100640.59;10393784;28;22140;-72
2022/10/10 23:02:11;;;;;;;9.88;5.22;;;;;;;16.39;77.89;100637.03;10394182;28;20411;-70
2022/10/10 23:07:14;;;;;;;7.75;4.53;;;;;;;16.42;77.75;100652.84;10432528;28;20055;-70
2022/10/10 23:12:15;;;;;;;9.37;4.40;;;;;;;16.40;77.11;100647.63;10396566;28;20040;-71
2022/10/10 23:17:17;;;;;;;7.40;4.60;;;;;;;16.42;77.74;100642.97;10398907;28;20056;-72
2022/10/10 23:22:18;;;;;;;7.53;4.70;;;;;;;16.41;77.10;100651.19;10395461;28;20060;-71